createdAt,value
2016-04-15T00:00:02.926Z,0
2016-04-15T00:01:02.929Z,0
2016-04-15T00:02:02.899Z,0
2016-04-15T00:03:02.887Z,0
2016-04-15T00:04:02.874Z,0
2016-04-15T00:05:02.876Z,0
2016-04-15T00:06:02.864Z,0
2016-04-15T00:07:02.835Z,0
2016-04-15T00:08:02.837Z,0
2016-04-15T00:09:02.809Z,0
2016-04-15T00:10:02.781Z,0
2016-04-15T00:11:02.768Z,0
2016-04-15T00:12:02.756Z,0
2016-04-15T00:13:02.758Z,0
2016-04-15T00:14:02.729Z,0
2016-04-15T00:15:02.716Z,0
2016-04-15T00:16:02.703Z,0
2016-04-15T00:17:02.706Z,0
2016-04-15T00:18:02.677Z,0
2016-04-15T00:19:02.680Z,0
2016-04-15T00:20:02.526Z,0
2016-04-15T00:21:02.654Z,0
2016-04-15T00:22:02.625Z,0
2016-04-15T00:23:02.596Z,0
2016-04-15T00:24:02.583Z,0
2016-04-15T00:25:02.586Z,0
2016-04-15T00:26:02.574Z,0
2016-04-15T00:27:02.577Z,0
2016-04-15T00:28:02.548Z,0
2016-04-15T00:29:02.551Z,0
2016-04-15T00:30:02.506Z,0
2016-04-15T00:31:02.181Z,0
2016-04-15T00:32:02.480Z,0
2016-04-15T00:33:02.469Z,0
2016-04-15T00:34:02.455Z,0
2016-04-15T00:35:02.428Z,0
2016-04-15T00:36:02.437Z,0
2016-04-15T00:37:02.424Z,0
2016-04-15T00:38:02.395Z,0
2016-04-15T00:39:02.382Z,0
2016-04-15T00:40:02.370Z,0
2016-04-15T00:41:02.356Z,0
2016-04-15T00:42:02.343Z,0
2016-04-15T00:43:02.330Z,0
2016-04-15T00:44:02.301Z,0
2016-04-15T00:45:02.445Z,0
2016-04-15T00:46:02.276Z,0
2016-04-15T00:47:02.107Z,0
2016-04-15T00:48:02.267Z,0
2016-04-15T00:49:02.237Z,0
2016-04-15T00:50:02.225Z,0
2016-04-15T00:51:02.056Z,0
2016-04-15T00:52:02.214Z,0
2016-04-15T00:53:02.186Z,0
2016-04-15T00:54:02.172Z,0
2016-04-15T00:55:02.160Z,0
2016-04-15T00:56:02.146Z,0
2016-04-15T00:57:02.118Z,0
2016-04-15T00:58:02.121Z,0
2016-04-15T00:59:02.123Z,0
2016-04-15T01:00:02.094Z,0
2016-04-15T01:01:02.066Z,0
2016-04-15T01:02:01.897Z,0
2016-04-15T01:03:02.057Z,0
2016-04-15T01:04:02.027Z,0
2016-04-15T01:05:02.015Z,0
2016-04-15T01:06:02.001Z,0
2016-04-15T01:07:01.988Z,0
2016-04-15T01:08:01.976Z,0
2016-04-15T01:09:01.979Z,0
2016-04-15T01:10:01.950Z,0
2016-04-15T01:11:01.937Z,0
2016-04-15T01:12:01.923Z,0
2016-04-15T01:13:01.895Z,0
2016-04-15T01:14:01.898Z,0
2016-04-15T01:15:01.869Z,0
2016-04-15T01:16:01.857Z,0
2016-04-15T01:17:01.844Z,0
2016-04-15T01:18:01.831Z,0
2016-04-15T01:19:01.818Z,0
2016-04-15T01:20:01.805Z,0
2016-04-15T01:21:01.792Z,0
2016-04-15T01:22:01.763Z,0
2016-04-15T01:23:01.781Z,0
2016-04-15T01:24:01.735Z,0
2016-04-15T01:25:01.738Z,0
2016-04-15T01:26:01.724Z,0
2016-04-15T01:27:01.712Z,0
2016-04-15T01:28:01.683Z,0
2016-04-15T01:29:01.686Z,0
2016-04-15T01:30:01.673Z,0
2016-04-15T01:31:01.644Z,0
2016-04-15T01:32:01.632Z,0
2016-04-15T01:33:01.618Z,0
2016-04-15T01:34:01.605Z,0
2016-04-15T01:35:01.593Z,0
2016-04-15T01:36:01.580Z,0
2016-04-15T01:37:01.566Z,0
2016-04-15T01:38:01.569Z,0
2016-04-15T01:39:01.525Z,0
2016-04-15T01:40:01.512Z,0
2016-04-15T01:41:01.515Z,0
2016-04-15T01:42:01.486Z,0
2016-04-15T01:43:01.474Z,0
2016-04-15T01:44:01.460Z,0
2016-04-15T01:45:01.448Z,0
2016-04-15T01:46:01.451Z,0
2016-04-15T01:47:01.406Z,0
2016-04-15T01:48:01.409Z,0
2016-04-15T01:49:01.411Z,0
2016-04-15T01:50:01.383Z,0
2016-04-15T01:51:01.370Z,0
2016-04-15T01:52:01.372Z,0
2016-04-15T01:53:01.344Z,0
2016-04-15T01:54:01.330Z,0
2016-04-15T01:55:01.318Z,0
2016-04-15T01:56:01.289Z,0
2016-04-15T01:57:01.291Z,0
2016-04-15T01:58:01.264Z,0
2016-04-15T01:59:01.266Z,0
2016-04-15T02:00:01.394Z,0
2016-04-15T02:01:01.241Z,0
2016-04-15T02:02:01.213Z,0
2016-04-15T02:03:01.215Z,0
2016-04-15T02:04:01.186Z,0
2016-04-15T02:05:01.173Z,0
2016-04-15T02:06:01.144Z,0
2016-04-15T02:07:01.147Z,0
2016-04-15T02:08:01.150Z,0
2016-04-15T02:09:01.122Z,0
2016-04-15T02:10:01.109Z,0
2016-04-15T02:11:01.096Z,0
2016-04-15T02:12:01.068Z,0
2016-04-15T02:13:01.054Z,0
2016-04-15T02:14:01.041Z,0
2016-04-15T02:15:01.075Z,0
2016-04-15T02:16:01.015Z,0
2016-04-15T02:17:01.003Z,0
2016-04-15T02:18:00.989Z,0
2016-04-15T02:19:00.961Z,0
2016-04-15T02:20:00.947Z,0
2016-04-15T02:21:00.966Z,0
2016-04-15T02:22:00.937Z,0
2016-04-15T02:23:00.924Z,0
2016-04-15T02:24:00.897Z,0
2016-04-15T02:25:00.883Z,0
2016-04-15T02:26:00.870Z,0
2016-04-15T02:27:00.858Z,0
2016-04-15T02:28:00.844Z,0
2016-04-15T02:29:00.831Z,0
2016-04-15T02:30:01.631Z,0
2016-04-15T02:31:00.805Z,0
2016-04-15T02:32:00.793Z,0
2016-04-15T02:33:00.764Z,0
2016-04-15T02:34:00.782Z,0
2016-04-15T02:35:00.754Z,0
2016-04-15T02:36:00.568Z,0
2016-04-15T02:37:00.727Z,0
2016-04-15T02:38:00.715Z,0
2016-04-15T02:39:00.702Z,0
2016-04-15T02:40:00.674Z,0
2016-04-15T02:41:00.660Z,0
2016-04-15T02:42:00.663Z,0
2016-04-15T02:43:00.635Z,0
2016-04-15T02:44:00.621Z,0
2016-04-15T02:45:00.312Z,0
2016-04-15T02:46:00.611Z,0
2016-04-15T02:47:00.583Z,0
2016-04-15T02:48:00.570Z,0
2016-04-15T02:49:00.557Z,0
2016-04-15T02:50:00.545Z,0
2016-04-15T02:51:00.532Z,0
2016-04-15T02:52:00.362Z,0
2016-04-15T02:53:00.506Z,0
2016-04-15T02:54:00.478Z,0
2016-04-15T02:55:00.448Z,0
2016-04-15T02:56:00.467Z,0
2016-04-15T02:57:00.438Z,0
2016-04-15T02:58:00.441Z,0
2016-04-15T02:59:00.444Z,0
2016-04-15T03:00:00.289Z,0
2016-04-15T03:01:00.417Z,0
2016-04-15T03:02:00.374Z,0
2016-04-15T03:03:00.361Z,0
2016-04-15T03:04:00.347Z,0
2016-04-15T03:05:00.335Z,0
2016-04-15T03:06:00.322Z,0
2016-04-15T03:07:00.308Z,0
2016-04-15T03:08:00.296Z,0
2016-04-15T03:09:00.252Z,0
2016-04-15T03:10:00.285Z,0
2016-04-15T03:11:00.273Z,0
2016-04-15T03:12:00.212Z,0
2016-04-15T03:13:00.215Z,0
2016-04-15T03:14:00.202Z,0
2016-04-15T03:15:00.329Z,0
2016-04-15T03:16:00.176Z,0
2016-04-15T03:17:00.179Z,0
2016-04-15T03:18:00.150Z,0
2016-04-15T03:19:00.137Z,0
2016-04-15T03:19:59.953Z,0
2016-04-15T03:21:00.112Z,0
2016-04-15T03:22:00.084Z,0
2016-04-15T03:23:00.070Z,0
2016-04-15T03:24:00.058Z,0
2016-04-15T03:25:00.029Z,0
2016-04-15T03:26:00.016Z,0
2016-04-15T03:27:00.019Z,0
2016-04-15T03:27:59.989Z,0
2016-04-15T03:28:59.992Z,0
2016-04-15T03:30:00.011Z,0
2016-04-15T03:30:59.952Z,0
2016-04-15T03:31:59.955Z,0
2016-04-15T03:32:59.925Z,0
2016-04-15T03:33:59.928Z,0
2016-04-15T03:34:59.916Z,0
2016-04-15T03:35:59.886Z,0
2016-04-15T03:36:59.874Z,0
2016-04-15T03:37:59.860Z,0
2016-04-15T03:38:59.848Z,0
2016-04-15T03:39:59.835Z,0
2016-04-15T03:40:59.807Z,0
2016-04-15T03:41:59.793Z,0
2016-04-15T03:42:59.827Z,0
2016-04-15T03:43:59.783Z,0
2016-04-15T03:44:59.754Z,0
2016-04-15T03:45:59.757Z,0
2016-04-15T03:46:59.729Z,0
2016-04-15T03:47:59.716Z,0
2016-04-15T03:48:59.718Z,0
2016-04-15T03:49:59.690Z,0
2016-04-15T03:50:59.692Z,0
2016-04-15T03:51:59.664Z,0
2016-04-15T03:52:59.651Z,0
2016-04-15T03:53:59.638Z,0
2016-04-15T03:54:59.625Z,0
2016-04-15T03:55:59.612Z,0
2016-04-15T03:56:59.583Z,0
2016-04-15T03:57:59.570Z,0
2016-04-15T03:58:59.557Z,0
2016-04-15T03:59:59.544Z,0
2016-04-15T04:00:59.532Z,0
2016-04-15T04:01:59.535Z,0
2016-04-15T04:02:59.506Z,0
2016-04-15T04:03:59.508Z,0
2016-04-15T04:04:59.480Z,0
2016-04-15T04:05:59.467Z,0
2016-04-15T04:06:59.485Z,0
2016-04-15T04:07:59.426Z,0
2016-04-15T04:08:59.444Z,0
2016-04-15T04:09:59.399Z,0
2016-04-15T04:10:59.387Z,0
2016-04-15T04:11:59.390Z,0
2016-04-15T04:12:59.377Z,0
2016-04-15T04:13:59.348Z,0
2016-04-15T04:14:59.351Z,0
2016-04-15T04:15:59.323Z,0
2016-04-15T04:16:59.309Z,0
2016-04-15T04:17:59.312Z,0
2016-04-15T04:18:59.284Z,0
2016-04-15T04:19:59.286Z,0
2016-04-15T04:20:59.257Z,0
2016-04-15T04:21:59.245Z,0
2016-04-15T04:22:59.231Z,0
2016-04-15T04:23:59.219Z,0
2016-04-15T04:24:59.205Z,0
2016-04-15T04:25:59.208Z,0
2016-04-15T04:26:59.164Z,0
2016-04-15T04:27:59.167Z,0
2016-04-15T04:28:59.139Z,0
2016-04-15T04:29:59.126Z,0
2016-04-15T04:30:59.113Z,0
2016-04-15T04:31:59.100Z,0
2016-04-15T04:32:59.103Z,0
2016-04-15T04:33:59.074Z,0
2016-04-15T04:34:59.061Z,0
2016-04-15T04:35:59.047Z,0
2016-04-15T04:36:59.004Z,0
2016-04-15T04:37:59.022Z,0
2016-04-15T04:38:59.009Z,0
2016-04-15T04:39:58.996Z,0
2016-04-15T04:40:58.982Z,0
2016-04-15T04:41:58.954Z,0
2016-04-15T04:42:58.973Z,0
2016-04-15T04:43:58.929Z,0
2016-04-15T04:44:58.916Z,0
2016-04-15T04:45:58.903Z,0
2016-04-15T04:46:58.874Z,0
2016-04-15T04:47:58.893Z,0
2016-04-15T04:48:58.879Z,0
2016-04-15T04:49:58.851Z,0
2016-04-15T04:50:58.837Z,0
2016-04-15T04:51:58.920Z,0
2016-04-15T04:52:58.806Z,0
2016-04-15T04:53:58.641Z,0
2016-04-15T04:54:59.602Z,0
2016-04-15T04:55:58.776Z,0
2016-04-15T04:56:58.748Z,0
2016-04-15T04:57:58.734Z,0
2016-04-15T04:58:58.737Z,0
2016-04-15T04:59:58.709Z,0
2016-04-15T05:00:58.728Z,0
2016-04-15T05:01:58.527Z,0
2016-04-15T05:02:58.670Z,0
2016-04-15T05:03:58.642Z,0
2016-04-15T05:04:58.644Z,0
2016-04-15T05:05:58.475Z,0
2016-04-15T05:06:58.618Z,0
2016-04-15T05:07:58.590Z,0
2016-04-15T05:08:58.577Z,0
2016-04-15T05:09:58.595Z,0
2016-04-15T05:10:58.552Z,0
2016-04-15T05:11:58.554Z,0
2016-04-15T05:12:58.525Z,0
2016-04-15T05:13:58.513Z,0
2016-04-15T05:14:58.499Z,0
2016-04-15T05:15:58.471Z,0
2016-04-15T05:16:58.474Z,0
2016-04-15T05:17:58.460Z,0
2016-04-15T05:18:58.448Z,0
2016-04-15T05:19:58.418Z,0
2016-04-15T05:20:58.406Z,0
2016-04-15T05:21:58.409Z,0
2016-04-15T05:22:58.380Z,0
2016-04-15T05:23:58.367Z,0
2016-04-15T05:24:58.370Z,0
2016-04-15T05:25:57.559Z,0
2016-04-15T05:26:58.328Z,0
2016-04-15T05:27:58.315Z,0
2016-04-15T05:28:57.522Z,0
2016-04-15T05:29:58.290Z,0
2016-04-15T05:30:58.277Z,0
2016-04-15T05:31:58.280Z,0
2016-04-15T05:32:58.250Z,0
2016-04-15T05:33:58.238Z,0
2016-04-15T05:34:58.225Z,0
2016-04-15T05:35:58.211Z,0
2016-04-15T05:36:58.184Z,0
2016-04-15T05:37:58.171Z,0
2016-04-15T05:38:58.158Z,0
2016-04-15T05:39:58.145Z,0
2016-04-15T05:40:58.132Z,0
2016-04-15T05:41:58.119Z,0
2016-04-15T05:42:58.105Z,0
2016-04-15T05:43:58.093Z,0
2016-04-15T05:44:58.080Z,0
2016-04-15T05:45:58.145Z,0
2016-04-15T05:46:58.054Z,0
2016-04-15T05:47:58.057Z,0
2016-04-15T05:48:57.871Z,0
2016-04-15T05:49:58.015Z,0
2016-04-15T05:50:57.987Z,0
2016-04-15T05:51:58.004Z,0
2016-04-15T05:52:57.962Z,0
2016-04-15T05:53:57.948Z,0
2016-04-15T05:54:57.935Z,0
2016-04-15T05:55:57.923Z,0
2016-04-15T05:56:57.925Z,0
2016-04-15T05:57:57.881Z,0
2016-04-15T05:58:57.898Z,0
2016-04-15T05:59:57.886Z,0
2016-04-15T06:00:57.795Z,0
2016-04-15T06:01:57.844Z,0
2016-04-15T06:02:57.831Z,0
2016-04-15T06:03:57.833Z,0
2016-04-15T06:04:57.805Z,0
2016-04-15T06:05:57.777Z,0
2016-04-15T06:06:57.779Z,0
2016-04-15T06:07:57.751Z,0
2016-04-15T06:08:57.425Z,5
2016-04-15T06:09:57.585Z,0
2016-04-15T06:10:57.728Z,0
2016-04-15T06:11:57.700Z,5
2016-04-15T06:12:57.702Z,5
2016-04-15T06:13:57.658Z,5
2016-04-15T06:14:57.645Z,5
2016-04-15T06:15:57.804Z,5
2016-04-15T06:16:57.635Z,5
2016-04-15T06:17:57.621Z,5
2016-04-15T06:18:57.609Z,5
2016-04-15T06:19:57.596Z,5
2016-04-15T06:20:57.589Z,5
2016-04-15T06:21:57.608Z,10
2016-04-15T06:22:57.564Z,10
2016-04-15T06:23:57.536Z,15
2016-04-15T06:24:57.523Z,15
2016-04-15T06:25:57.525Z,10
2016-04-15T06:26:57.731Z,15
2016-04-15T06:27:57.472Z,10
2016-04-15T06:28:57.475Z,10
2016-04-15T06:29:57.446Z,15
2016-04-15T06:30:57.559Z,15
2016-04-15T06:31:57.452Z,15
2016-04-15T06:32:57.408Z,25
2016-04-15T06:33:57.396Z,20
2016-04-15T06:34:57.383Z,35
2016-04-15T06:35:57.369Z,20
2016-04-15T06:36:57.357Z,20
2016-04-15T06:37:57.360Z,25
2016-04-15T06:38:57.331Z,20
2016-04-15T06:39:57.334Z,30
2016-04-15T06:40:57.304Z,25
2016-04-15T06:41:57.276Z,35
2016-04-15T06:42:57.279Z,35
2016-04-15T06:43:57.265Z,30
2016-04-15T06:44:57.253Z,35
2016-04-15T06:45:57.130Z,35
2016-04-15T06:47:11.261Z,50
2016-04-15T06:47:57.198Z,40
2016-04-15T06:48:57.185Z,35
2016-04-15T06:49:57.173Z,55
2016-04-15T06:50:57.159Z,50
2016-04-15T06:51:57.162Z,60
2016-04-15T06:52:57.134Z,40
2016-04-15T06:53:57.136Z,50
2016-04-15T06:54:57.202Z,60
2016-04-15T06:55:57.094Z,60
2016-04-15T06:56:57.082Z,65
2016-04-15T06:57:57.053Z,70
2016-04-15T06:58:57.041Z,60
2016-04-15T06:59:57.044Z,60
2016-04-15T07:00:57.000Z,65
2016-04-15T07:01:57.002Z,65
2016-04-15T07:02:57.005Z,80
2016-04-15T07:03:56.991Z,70
2016-04-15T07:04:56.979Z,85
2016-04-15T07:05:56.982Z,90
2016-04-15T07:06:56.952Z,85
2016-04-15T07:07:56.924Z,70
2016-04-15T07:08:56.912Z,95
2016-04-15T07:09:56.898Z,90
2016-04-15T07:10:56.885Z,90
2016-04-15T07:11:56.887Z,65
2016-04-15T07:12:56.843Z,55
2016-04-15T07:13:56.846Z,40
2016-04-15T07:14:56.834Z,35
2016-04-15T07:15:56.884Z,45
2016-04-15T07:16:56.808Z,45
2016-04-15T07:17:56.795Z,60
2016-04-15T07:18:56.782Z,60
2016-04-15T07:19:56.754Z,65
2016-04-15T07:20:56.740Z,50
2016-04-15T07:21:56.763Z,55
2016-04-15T07:22:56.735Z,50
2016-04-15T07:23:56.707Z,50
2016-04-15T07:24:56.709Z,80
2016-04-15T07:25:56.696Z,95
2016-04-15T07:26:56.667Z,95
2016-04-15T07:27:56.659Z,95
2016-04-15T07:28:56.647Z,100
2016-04-15T07:29:56.477Z,130
2016-04-15T07:30:56.496Z,110
2016-04-15T07:31:56.608Z,110
2016-04-15T07:32:56.579Z,135
2016-04-15T07:33:56.582Z,135
2016-04-15T07:34:56.569Z,140
2016-04-15T07:35:56.540Z,165
2016-04-15T07:36:56.559Z,120
2016-04-15T07:37:56.545Z,110
2016-04-15T07:38:56.501Z,85
2016-04-15T07:39:56.489Z,90
2016-04-15T07:40:56.475Z,100
2016-04-15T07:41:56.464Z,110
2016-04-15T07:42:56.450Z,75
2016-04-15T07:43:56.453Z,65
2016-04-15T07:44:56.440Z,80
2016-04-15T07:45:56.442Z,80
2016-04-15T07:46:56.414Z,60
2016-04-15T07:47:56.400Z,45
2016-04-15T07:48:56.372Z,40
2016-04-15T07:49:56.360Z,40
2016-04-15T07:50:56.362Z,60
2016-04-15T07:51:56.333Z,40
2016-04-15T07:52:56.320Z,55
2016-04-15T07:53:56.307Z,70
2016-04-15T07:54:56.294Z,60
2016-04-15T07:55:56.281Z,85
2016-04-15T07:56:56.285Z,75
2016-04-15T07:57:56.256Z,110
2016-04-15T07:58:56.243Z,95
2016-04-15T07:59:56.229Z,75
2016-04-15T08:00:56.217Z,95
2016-04-15T08:01:56.204Z,110
2016-04-15T08:02:56.190Z,105
2016-04-15T08:03:56.209Z,80
2016-04-15T08:04:56.165Z,145
2016-04-15T08:05:55.856Z,75
2016-04-15T08:06:56.156Z,130
2016-04-15T08:07:56.112Z,90
2016-04-15T08:08:56.098Z,115
2016-04-15T08:09:56.101Z,90
2016-04-15T08:10:56.150Z,125
2016-04-15T08:11:56.059Z,160
2016-04-15T08:12:56.047Z,155
2016-04-15T08:13:56.049Z,105
2016-04-15T08:14:56.020Z,115
2016-04-15T08:15:56.038Z,140
2016-04-15T08:16:56.011Z,180
2016-04-15T08:17:56.013Z,155
2016-04-15T08:18:55.984Z,155
2016-04-15T08:19:55.956Z,130
2016-04-15T08:20:55.958Z,85
2016-04-15T08:21:55.936Z,145
2016-04-15T08:22:56.486Z,235
2016-04-15T08:23:55.909Z,215
2016-04-15T08:24:55.881Z,250
2016-04-15T08:25:55.883Z,230
2016-04-15T08:26:55.871Z,205
2016-04-15T08:27:55.858Z,110
2016-04-15T08:28:55.844Z,90
2016-04-15T08:29:55.848Z,145
2016-04-15T08:30:55.819Z,145
2016-04-15T08:31:55.811Z,140
2016-04-15T08:32:55.841Z,95
2016-04-15T08:33:55.855Z,115
2016-04-15T08:34:55.900Z,105
2016-04-15T08:35:55.930Z,85
2016-04-15T08:36:56.144Z,100
2016-04-15T08:37:55.943Z,140
2016-04-15T08:38:55.961Z,115
2016-04-15T08:39:55.963Z,95
2016-04-15T08:40:55.981Z,100
2016-04-15T08:41:55.952Z,85
2016-04-15T08:42:55.944Z,115
2016-04-15T08:43:55.968Z,140
2016-04-15T08:44:55.930Z,110
2016-04-15T08:45:55.922Z,90
2016-04-15T08:46:55.945Z,115
2016-04-15T08:47:55.918Z,115
2016-04-15T08:48:55.907Z,150
2016-04-15T08:49:55.881Z,140
2016-04-15T08:50:55.885Z,130
2016-04-15T08:51:55.858Z,135
2016-04-15T08:52:55.847Z,135
2016-04-15T08:53:55.850Z,145
2016-04-15T08:54:55.838Z,125
2016-04-15T08:55:55.841Z,100
2016-04-15T08:56:55.828Z,170
2016-04-15T08:57:55.831Z,195
2016-04-15T08:58:55.772Z,215
2016-04-15T08:59:55.760Z,135
2016-04-15T09:00:55.747Z,125
2016-04-15T09:01:55.750Z,165
2016-04-15T09:02:55.753Z,100
2016-04-15T09:03:55.724Z,130
2016-04-15T09:04:55.696Z,140
2016-04-15T09:05:55.715Z,225
2016-04-15T09:06:55.701Z,220
2016-04-15T09:07:55.673Z,170
2016-04-15T09:08:55.659Z,125
2016-04-15T09:09:55.647Z,110
2016-04-15T09:10:55.634Z,120
2016-04-15T09:11:55.605Z,115
2016-04-15T09:12:55.623Z,130
2016-04-15T09:13:55.579Z,95
2016-04-15T09:14:55.425Z,130
2016-04-15T09:15:55.569Z,110
2016-04-15T09:16:55.588Z,100
2016-04-15T09:17:55.528Z,175
2016-04-15T09:18:55.546Z,145
2016-04-15T09:19:55.517Z,175
2016-04-15T09:20:55.504Z,195
2016-04-15T09:21:55.476Z,215
2016-04-15T09:22:55.463Z,195
2016-04-15T09:23:55.466Z,90
2016-04-15T09:24:55.452Z,55
2016-04-15T09:25:55.441Z,65
2016-04-15T09:26:55.427Z,85
2016-04-15T09:27:55.446Z,85
2016-04-15T09:28:55.432Z,95
2016-04-15T09:29:55.435Z,75
2016-04-15T09:30:55.391Z,130
2016-04-15T09:31:55.362Z,125
2016-04-15T09:32:55.349Z,125
2016-04-15T09:33:55.336Z,155
2016-04-15T09:34:55.339Z,190
2016-04-15T09:35:55.310Z,170
2016-04-15T09:36:55.298Z,110
2016-04-15T09:37:55.285Z,85
2016-04-15T09:38:55.272Z,125
2016-04-15T09:39:55.259Z,135
2016-04-15T09:40:55.245Z,115
2016-04-15T09:41:55.233Z,120
2016-04-15T09:42:55.236Z,200
2016-04-15T09:43:55.206Z,185
2016-04-15T09:44:55.194Z,160
2016-04-15T09:45:55.180Z,155
2016-04-15T09:46:55.183Z,175
2016-04-15T09:47:55.155Z,165
2016-04-15T09:48:54.986Z,70
2016-04-15T09:49:55.130Z,140
2016-04-15T09:50:55.100Z,130
2016-04-15T09:51:55.103Z,100
2016-04-15T09:52:55.090Z,40
2016-04-15T09:53:55.124Z,55
2016-04-15T10:50:21.809Z,250
2016-04-15T10:50:34.825Z,265
2016-04-15T10:51:34.811Z,160
2016-04-15T10:52:34.783Z,110
2016-04-15T10:53:34.769Z,80
2016-04-15T10:54:34.757Z,60
2016-04-15T10:55:34.760Z,70
2016-04-15T10:56:34.732Z,100
2016-04-15T10:57:34.735Z,100
2016-04-15T10:58:34.722Z,90
2016-04-15T10:59:34.693Z,80
2016-04-15T11:00:34.696Z,200
2016-04-15T11:01:34.730Z,175
2016-04-15T11:02:34.669Z,105
2016-04-15T11:03:34.672Z,130
2016-04-15T11:04:34.643Z,115
2016-04-15T11:05:34.615Z,215
2016-04-15T11:06:34.601Z,180
2016-04-15T11:07:34.589Z,205
2016-04-15T11:08:34.576Z,240
2016-04-15T11:09:34.563Z,200
2016-04-15T11:10:34.551Z,220
2016-04-15T11:11:34.553Z,165
2016-04-15T11:12:34.509Z,170
2016-04-15T11:13:34.512Z,145
2016-04-15T11:14:34.483Z,120
2016-04-15T11:15:34.470Z,180
2016-04-15T11:16:34.472Z,185
2016-04-15T11:17:34.444Z,180
2016-04-15T11:18:34.446Z,150
2016-04-15T11:19:34.418Z,120
2016-04-15T11:20:34.405Z,90
2016-04-15T11:21:34.377Z,55
2016-04-15T11:22:34.380Z,50
2016-04-15T11:23:34.366Z,60
2016-04-15T11:24:34.338Z,35
2016-04-15T11:25:34.340Z,30
2016-04-15T11:26:34.593Z,0
2016-04-15T13:58:01.078Z,445
2016-04-15T13:59:00.893Z,395
2016-04-15T14:00:00.974Z,745
2016-04-15T14:01:00.945Z,330
2016-04-15T14:02:00.948Z,480
2016-04-15T14:03:00.920Z,540
2016-04-15T14:04:00.923Z,470
2016-04-15T14:05:03.878Z,350
2016-04-15T14:06:00.897Z,565
2016-04-15T14:07:00.868Z,450
2016-04-15T14:08:00.855Z,540
2016-04-15T14:09:00.858Z,545
2016-04-15T14:10:00.860Z,300
2016-04-15T14:11:00.863Z,375
2016-04-15T14:12:00.834Z,320
2016-04-15T14:13:00.853Z,305
2016-04-15T14:14:00.996Z,575
2016-04-15T14:15:00.811Z,395
2016-04-15T14:16:00.783Z,425
2016-04-15T14:17:00.770Z,425
2016-04-15T14:18:00.788Z,275
2016-04-15T14:19:00.743Z,380
2016-04-15T14:20:00.747Z,400
2016-04-15T14:21:00.735Z,410
2016-04-15T14:22:00.721Z,320
2016-04-15T14:23:00.693Z,330
2016-04-15T14:24:00.679Z,260
2016-04-15T14:25:00.698Z,305
2016-04-15T14:26:00.685Z,260
2016-04-15T14:27:00.687Z,260
2016-04-15T14:28:00.675Z,170
2016-04-15T14:29:00.645Z,220
2016-04-15T14:30:00.602Z,305
2016-04-15T14:31:00.604Z,265
2016-04-15T14:32:00.592Z,255
2016-04-15T14:33:00.595Z,355
2016-04-15T14:34:00.581Z,535
2016-04-15T14:35:00.584Z,295
2016-04-15T14:36:00.555Z,330
2016-04-15T14:37:01.511Z,280
2016-04-15T14:38:00.576Z,225
2016-04-15T14:39:00.704Z,290
2016-04-15T14:40:00.519Z,340
2016-04-15T14:41:00.506Z,370
2016-04-15T14:42:00.494Z,645
2016-04-15T14:43:00.480Z,260
2016-04-15T14:44:00.483Z,410
2016-04-15T14:45:00.454Z,285
2016-04-15T14:46:00.441Z,280
2016-04-15T14:47:00.460Z,385
2016-04-15T14:48:00.744Z,395
2016-04-15T14:49:00.466Z,510
2016-04-15T14:50:00.249Z,535
2016-04-15T14:51:00.393Z,455
2016-04-15T14:52:00.368Z,610
2016-04-15T14:53:00.371Z,825
2016-04-15T14:54:00.374Z,400
2016-04-15T14:55:00.361Z,1000
2016-04-15T14:56:00.333Z,615
2016-04-15T14:57:00.335Z,285
2016-04-15T14:58:00.353Z,285
2016-04-15T14:59:00.309Z,260
2016-04-15T15:00:00.297Z,485
2016-04-15T15:01:00.268Z,610
2016-04-15T15:02:00.114Z,335
2016-04-15T15:03:00.180Z,335
2016-04-15T15:04:00.119Z,185
2016-04-15T15:05:00.232Z,215
2016-04-15T15:06:00.203Z,355
2016-04-15T15:07:00.222Z,445
2016-04-15T15:08:00.224Z,360
2016-04-15T15:09:00.211Z,240
2016-04-15T15:10:00.167Z,300
2016-04-15T15:11:00.170Z,440
2016-04-15T15:12:01.672Z,445
2016-04-15T15:13:03.504Z,495
2016-04-15T15:14:04.443Z,295
2016-04-15T15:15:05.868Z,320
2016-04-15T15:16:03.933Z,1585
2016-04-15T15:17:00.124Z,720
2016-04-15T15:18:00.580Z,1485
2016-04-15T15:19:00.082Z,530
2016-04-15T15:20:00.069Z,470
2016-04-15T15:21:00.056Z,335
2016-04-15T15:22:00.059Z,435
2016-04-15T15:23:00.045Z,345
2016-04-15T15:24:00.048Z,575
2016-04-15T15:25:00.020Z,785
2016-04-15T15:26:00.834Z,670
2016-04-15T15:27:00.010Z,720
2016-04-15T15:27:59.997Z,930
2016-04-15T15:28:59.984Z,1400
2016-04-15T15:29:59.986Z,475
2016-04-15T15:30:59.973Z,420
2016-04-15T15:31:59.976Z,565
2016-04-15T15:32:59.822Z,275
2016-04-15T15:33:59.810Z,310
2016-04-15T15:34:59.938Z,295
2016-04-15T15:35:59.941Z,335
2016-04-15T15:37:00.646Z,265
2016-04-15T15:37:59.914Z,385
2016-04-15T15:38:59.902Z,430
2016-04-15T15:39:59.888Z,420
2016-04-15T15:40:59.891Z,460
2016-04-15T15:41:59.941Z,265
2016-04-15T15:42:59.866Z,500
2016-04-15T15:43:59.869Z,360
2016-04-15T15:44:59.855Z,410
2016-04-15T15:45:59.843Z,360
2016-04-15T15:46:59.860Z,345
2016-04-15T15:47:59.941Z,290
2016-04-15T15:48:59.788Z,315
2016-04-15T15:49:59.790Z,375
2016-04-15T15:51:00.231Z,340
2016-04-15T15:51:59.795Z,415
2016-04-15T15:52:59.768Z,325
2016-04-15T15:53:59.754Z,550
2016-04-15T15:54:59.742Z,375
2016-04-15T15:55:59.728Z,400
2016-04-15T15:56:59.590Z,330
2016-04-15T15:57:59.718Z,380
2016-04-15T15:58:59.689Z,265
2016-04-15T15:59:59.676Z,390
2016-04-15T16:00:59.679Z,295
2016-04-15T16:01:59.682Z,265
2016-04-15T16:02:59.684Z,320
2016-04-15T16:03:59.641Z,300
2016-04-15T16:04:59.644Z,240
2016-04-15T16:05:59.630Z,255
2016-04-15T16:06:59.649Z,305
2016-04-15T16:07:59.604Z,325
2016-04-15T16:08:59.622Z,305
2016-04-15T16:09:59.625Z,340
2016-04-15T16:10:59.581Z,285
2016-04-15T16:11:59.584Z,210
2016-04-15T16:12:59.571Z,210
2016-04-15T16:13:59.558Z,340
2016-04-15T16:14:59.529Z,280
2016-04-15T16:15:59.516Z,290
2016-04-15T16:16:59.518Z,275
2016-04-15T16:17:59.615Z,285
2016-04-15T16:18:59.524Z,260
2016-04-15T16:19:59.512Z,295
2016-04-15T16:21:02.171Z,260
2016-04-15T16:21:59.382Z,280
2016-04-15T16:22:59.446Z,265
2016-04-15T16:23:59.434Z,345
2016-04-15T16:24:59.420Z,245
2016-04-15T16:26:00.829Z,265
2016-04-15T16:26:59.394Z,225
2016-04-15T16:28:13.416Z,320
2016-04-15T16:28:59.400Z,240
2016-04-15T16:30:00.419Z,310
2016-04-15T16:30:59.359Z,225
2016-04-15T16:31:59.361Z,255
2016-04-15T16:32:59.348Z,350
2016-04-15T16:33:59.336Z,165
2016-04-15T16:34:59.307Z,175
2016-04-15T16:35:59.310Z,230
2016-04-15T16:36:59.312Z,245
2016-04-15T16:37:59.299Z,165
2016-04-15T16:38:59.271Z,210
2016-04-15T16:39:59.257Z,195
2016-04-15T16:40:59.260Z,215
2016-04-15T16:41:59.404Z,285
2016-04-15T16:42:59.610Z,210
2016-04-15T16:43:59.221Z,180
2016-04-15T16:45:00.302Z,220
2016-04-15T16:45:59.196Z,250
2016-04-15T16:46:59.183Z,295
2016-04-15T16:47:59.280Z,305
2016-04-15T16:48:59.141Z,250
2016-04-15T16:49:59.160Z,235
2016-04-15T16:50:59.131Z,180
2016-04-15T16:51:59.228Z,200
2016-04-15T16:52:59.106Z,225
2016-04-15T16:54:00.404Z,255
2016-04-15T16:54:59.111Z,240
2016-04-15T16:55:59.081Z,185
2016-04-15T16:56:58.897Z,225
2016-04-15T16:57:59.056Z,290
2016-04-15T16:58:58.887Z,230
2016-04-15T16:59:59.015Z,230
2016-04-15T17:00:59.002Z,170
2016-04-15T17:01:59.005Z,150
2016-04-15T17:02:58.992Z,150
2016-04-15T17:03:58.978Z,145
2016-04-15T17:04:58.981Z,275
2016-04-15T17:05:58.953Z,135
2016-04-15T17:06:58.939Z,155
2016-04-15T17:07:58.989Z,145
2016-04-15T17:08:58.992Z,95
2016-04-15T17:09:58.917Z,140
2016-04-15T17:10:58.888Z,185
2016-04-15T17:11:58.875Z,175
2016-04-15T17:13:00.284Z,205
2016-04-15T17:13:58.865Z,240
2016-04-15T17:14:58.868Z,205
2016-04-15T17:15:58.823Z,185
2016-04-15T17:16:58.827Z,205
2016-04-15T17:17:58.813Z,155
2016-04-15T17:18:58.816Z,210
2016-04-15T17:19:58.788Z,175
2016-04-15T17:20:58.790Z,205
2016-04-15T17:21:58.762Z,160
2016-04-15T17:24:12.769Z,120
2016-04-15T17:24:58.722Z,150
2016-04-15T17:25:58.725Z,165
2016-04-15T17:26:58.697Z,180
2016-04-15T17:27:58.714Z,190
2016-04-15T17:28:58.702Z,135
2016-04-15T17:29:58.689Z,140
2016-04-15T17:30:58.692Z,145
2016-04-15T17:31:58.647Z,110
2016-04-15T17:32:58.619Z,120
2016-04-15T17:33:58.637Z,130
2016-04-15T17:35:12.658Z,185
2016-04-15T17:35:58.611Z,135
2016-04-15T17:36:58.599Z,145
2016-04-15T17:37:58.587Z,130
2016-04-15T17:38:58.632Z,160
2016-04-15T17:40:12.721Z,145
2016-04-15T17:41:12.749Z,125
2016-04-15T17:41:58.562Z,140